Time;durP1;ratioP1;P1;durP2;ratioP2;P2;SDS_P1;SDS_P2;PMS_P1;PMS_P2;Temp;Humidity;BMP_temperature;BMP_pressure;BME280_temperature;BME280_humidity;BME280_pressure;Samples;Min_cycle;Max_cycle;Signal;HPM_P1;HPM_P2
2021/01/15 00:01:46;;;;;;;13.37;7.50;;;-2.00;99.90;;;;;;5050785;28;20111;-79
2021/01/15 00:04:11;;;;;;;12.47;6.07;;;-2.00;99.90;;;;;;5052408;28;20021;-78
2021/01/15 00:06:37;;;;;;;15.50;8.30;;;-1.90;99.90;;;;;;5051970;28;20049;-77
2021/01/15 00:09:03;;;;;;;15.83;8.07;;;-2.00;99.90;;;;;;5052566;28;20032;-76
2021/01/15 00:11:31;;;;;;;19.17;8.23;;;-2.00;99.90;;;;;;5052603;28;20033;-77
2021/01/15 00:14:00;;;;;;;16.00;8.37;;;-2.00;99.90;;;;;;5052010;28;20155;-77
2021/01/15 00:16:31;;;;;;;15.20;8.05;;;-2.00;99.90;;;;;;5051961;28;20044;-76
2021/01/15 00:18:58;;;;;;;19.67;9.00;;;-2.00;99.90;;;;;;5051639;28;20033;-77
2021/01/15 00:21:29;;;;;;;16.03;8.37;;;-2.00;99.90;;;;;;5052271;28;20412;-77
2021/01/15 00:23:57;;;;;;;15.27;8.13;;;-2.10;99.90;;;;;;5048376;28;20491;-77
2021/01/15 00:26:25;;;;;;;17.77;9.23;;;-2.10;99.90;;;;;;5053126;28;20021;-78
2021/01/15 00:28:51;;;;;;;16.63;8.60;;;-2.20;99.90;;;;;;5050158;28;20020;-78
2021/01/15 00:31:17;;;;;;;13.90;6.67;;;-2.20;99.90;;;;;;5031898;28;20125;-79
2021/01/15 00:33:43;;;;;;;14.10;8.43;;;-2.20;99.90;;;;;;5051481;28;20112;-77
2021/01/15 00:36:09;;;;;;;18.37;8.67;;;-2.20;99.90;;;;;;5050706;28;20040;-77
2021/01/15 00:38:36;;;;;;;15.53;9.10;;;-2.30;99.90;;;;;;5049842;28;20108;-77
2021/01/15 00:41:04;;;;;;;19.20;8.80;;;-2.30;99.90;;;;;;5054130;28;20025;-76
2021/01/15 00:43:30;;;;;;;15.10;8.73;;;-2.30;99.90;;;;;;5050190;28;20025;-78
2021/01/15 00:45:56;;;;;;;17.43;7.87;;;-2.30;99.90;;;;;;5051347;28;20037;-77
2021/01/15 00:48:21;;;;;;;15.27;7.87;;;-2.30;99.90;;;;;;5052602;28;20236;-77
2021/01/15 00:50:47;;;;;;;16.30;8.93;;;-2.40;99.90;;;;;;5051981;28;20492;-76
2021/01/15 00:53:13;;;;;;;17.23;8.73;;;-2.40;99.90;;;;;;5049804;28;20044;-78
2021/01/15 00:55:39;;;;;;;18.07;9.83;;;-2.50;99.90;;;;;;5051824;28;20025;-76
2021/01/15 00:58:04;;;;;;;11.67;7.27;;;-2.50;99.90;;;;;;5050115;28;20037;-77
2021/01/15 01:00:30;;;;;;;18.03;9.47;;;-2.50;99.90;;;;;;5050252;28;20045;-78
2021/01/15 01:02:56;;;;;;;16.87;9.90;;;-2.60;99.90;;;;;;5050620;28;20028;-78
2021/01/15 01:05:23;;;;;;;20.10;10.30;;;-2.60;99.90;;;;;;5052221;28;20061;-76
2021/01/15 01:07:49;;;;;;;17.80;9.10;;;-2.70;99.90;;;;;;5051145;28;20021;-76
2021/01/15 01:10:16;;;;;;;18.30;9.43;;;-2.70;99.90;;;;;;5051985;28;20083;-76
2021/01/15 01:12:43;;;;;;;17.50;9.10;;;-2.70;99.90;;;;;;5050295;28;20036;-76
2021/01/15 01:15:10;;;;;;;18.23;9.30;;;-2.70;99.90;;;;;;5050421;28;20036;-79
2021/01/15 01:17:35;;;;;;;17.57;8.83;;;-2.70;99.90;;;;;;5052193;28;20119;-77
2021/01/15 01:20:01;;;;;;;16.67;9.43;;;-2.70;99.90;;;;;;5051425;28;20096;-77
2021/01/15 01:22:27;;;;;;;15.63;7.77;;;-2.70;99.90;;;;;;5050311;28;20029;-79
2021/01/15 01:24:54;;;;;;;18.30;6.50;;;-2.70;99.90;;;;;;5027123;28;20077;-78
2021/01/15 01:27:19;;;;;;;12.00;5.10;;;-2.70;99.90;;;;;;5041253;28;20031;-76
2021/01/15 01:29:45;;;;;;;15.90;9.10;;;-2.70;99.90;;;;;;5050082;28;20033;-78
2021/01/15 01:32:10;;;;;;;15.67;7.93;;;-2.60;99.90;;;;;;5050370;28;20021;-80
2021/01/15 01:34:36;;;;;;;14.57;8.33;;;-2.60;99.90;;;;;;5050988;28;20507;-77
2021/01/15 01:37:02;;;;;;;16.53;8.17;;;-2.70;99.90;;;;;;5051259;28;20033;-76
2021/01/15 01:39:27;;;;;;;13.83;7.60;;;-2.70;99.90;;;;;;5050239;28;20025;-77
2021/01/15 01:41:53;;;;;;;15.33;8.53;;;-2.70;99.90;;;;;;5050645;28;20094;-77
2021/01/15 01:44:19;;;;;;;14.30;8.17;;;-2.80;99.90;;;;;;5048535;28;20079;-77
2021/01/15 01:46:44;;;;;;;14.00;7.33;;;-2.70;99.90;;;;;;5055003;28;20037;-76
2021/01/15 01:49:11;;;;;;;13.83;7.53;;;-2.80;99.90;;;;;;5058140;28;20078;-76
2021/01/15 01:51:38;;;;;;;15.20;7.77;;;-2.80;99.90;;;;;;5033835;28;20027;-77
2021/01/15 01:54:04;;;;;;;15.00;8.60;;;-2.80;99.90;;;;;;5049837;28;20032;-77
2021/01/15 01:56:29;;;;;;;17.00;8.30;;;-2.80;99.90;;;;;;5049485;28;20033;-76
2021/01/15 01:58:56;;;;;;;16.30;8.03;;;-2.80;99.90;;;;;;5050358;28;20025;-78
2021/01/15 02:01:24;;;;;;;17.90;8.17;;;-2.80;99.90;;;;;;5049658;28;20021;-77
2021/01/15 02:04:00;;;;;;;16.60;8.90;;;-2.90;99.90;;;;;;5049632;28;20449;-77
2021/01/15 02:06:27;;;;;;;16.43;8.67;;;-2.90;99.90;;;;;;5049229;28;20056;-77
2021/01/15 02:08:53;;;;;;;19.37;9.17;;;-2.90;99.90;;;;;;5050226;28;20063;-78
2021/01/15 02:11:55;;;;;;;16.60;8.43;;;-3.00;99.90;;;;;;5051141;28;20025;-77
2021/01/15 02:14:53;;;;;;;16.37;7.63;;;-2.90;99.90;;;;;;4919266;29;20048;-78
2021/01/15 02:17:25;;;;;;;16.00;8.63;;;-3.00;99.90;;;;;;4910099;29;20252;-78
2021/01/15 02:20:28;;;;;;;19.03;8.80;;;-3.00;99.90;;;;;;4909878;29;20036;-78
2021/01/15 02:22:58;;;;;;;16.07;8.03;;;-3.10;99.90;;;;;;4912666;29;20039;-77
2021/01/15 02:25:45;;;;;;;17.67;8.63;;;-3.10;99.90;;;;;;4919951;29;20046;-77
2021/01/15 02:28:19;;;;;;;14.33;6.57;;;-3.10;99.90;;;;;;4910203;29;20032;-77
2021/01/15 02:31:16;;;;;;;14.90;8.03;;;-3.10;99.90;;;;;;4913465;29;20052;-77
2021/01/15 02:33:53;;;;;;;19.20;9.20;;;-3.10;99.90;;;;;;4915117;29;20662;-77
2021/01/15 02:36:34;;;;;;;18.90;10.03;;;-3.10;99.90;;;;;;4918705;29;20127;-77
2021/01/15 02:39:11;;;;;;;16.90;8.30;;;-3.10;99.90;;;;;;4909208;29;20038;-76
2021/01/15 02:41:38;;;;;;;23.67;10.67;;;-3.10;99.90;;;;;;4901420;29;20033;-77
2021/01/15 02:44:11;;;;;;;20.13;10.33;;;-3.20;99.90;;;;;;4917086;29;20464;-79
2021/01/15 02:46:56;;;;;;;18.93;9.23;;;-3.20;99.90;;;;;;4921796;29;20101;-78
2021/01/15 02:49:22;;;;;;;19.67;9.50;;;-3.20;99.90;;;;;;4946220;28;20041;-76
2021/01/15 02:51:48;;;;;;;21.93;10.33;;;-3.30;99.90;;;;;;5037890;28;20101;-78
2021/01/15 02:54:13;;;;;;;21.50;8.37;;;-3.30;99.90;;;;;;5033668;28;20417;-76
2021/01/15 02:56:39;;;;;;;20.30;9.20;;;-3.30;99.90;;;;;;5034740;28;20098;-77
2021/01/15 02:59:06;;;;;;;20.23;9.97;;;-3.30;99.90;;;;;;5033072;28;20032;-77
2021/01/15 03:01:48;;;;;;;18.47;8.50;;;-3.40;99.90;;;;;;5032878;28;20025;-77
2021/01/15 03:04:18;;;;;;;21.03;11.17;;;-3.40;99.90;;;;;;5034641;28;20033;-76
2021/01/15 03:06:53;;;;;;;20.63;10.27;;;-3.50;99.90;;;;;;5033208;28;20041;-77
2021/01/15 03:09:19;;;;;;;21.37;10.40;;;-3.60;99.90;;;;;;5015118;28;20029;-77
2021/01/15 03:11:47;;;;;;;23.83;11.00;;;-3.60;99.90;;;;;;5032480;28;20033;-78
2021/01/15 03:14:16;;;;;;;22.60;10.57;;;-3.60;99.90;;;;;;5047035;28;20073;-78
2021/01/15 03:16:42;;;;;;;;;;;-3.60;99.90;;;;;;5054273;28;20468;-76
2021/01/15 03:19:08;;;;;;;18.53;10.27;;;-3.70;99.90;;;;;;5053026;28;19930;-78
2021/01/15 03:21:38;;;;;;;20.77;10.17;;;-3.70;99.90;;;;;;5034883;28;20126;-77
2021/01/15 03:24:06;;;;;;;22.00;11.17;;;-3.70;99.90;;;;;;5052280;28;20131;-77
2021/01/15 03:26:32;;;;;;;23.57;10.63;;;-3.70;99.90;;;;;;5040648;28;20035;-79
2021/01/15 03:28:58;;;;;;;19.10;9.40;;;-3.80;99.90;;;;;;5052556;28;20112;-77
2021/01/15 03:31:24;;;;;;;25.77;11.53;;;-3.80;99.90;;;;;;5034543;28;20032;-77
2021/01/15 03:33:49;;;;;;;17.93;9.40;;;-3.80;99.90;;;;;;5053749;28;20366;-76
2021/01/15 03:36:16;;;;;;;23.83;11.23;;;-3.80;99.90;;;;;;5054866;28;20111;-77
2021/01/15 03:38:43;;;;;;;26.77;11.70;;;-3.80;99.90;;;;;;5034473;28;20127;-78
2021/01/15 03:41:08;;;;;;;23.97;11.23;;;-3.80;99.90;;;;;;5052312;28;20396;-79
2021/01/15 03:43:34;;;;;;;24.50;12.33;;;-3.90;99.90;;;;;;5053254;28;20033;-76
2021/01/15 03:46:00;;;;;;;24.73;10.93;;;-3.80;99.90;;;;;;5058465;28;20096;-76
2021/01/15 03:48:27;;;;;;;27.37;13.13;;;-3.80;99.90;;;;;;5051738;28;20067;-77
2021/01/15 03:50:53;;;;;;;27.10;11.93;;;-3.80;99.90;;;;;;5053343;28;20051;-77
2021/01/15 03:53:19;;;;;;;26.73;12.47;;;-3.90;99.90;;;;;;5051625;28;20024;-77
2021/01/15 03:55:45;;;;;;;28.67;12.03;;;-3.80;99.90;;;;;;5053221;28;20047;-76
2021/01/15 03:58:11;;;;;;;25.47;11.53;;;-3.90;99.90;;;;;;5055106;28;20029;-77
2021/01/15 04:00:36;;;;;;;25.80;12.23;;;-3.90;99.90;;;;;;5049306;28;20400;-78
2021/01/15 04:03:02;;;;;;;23.43;9.77;;;-3.90;99.90;;;;;;5034721;28;20056;-77
2021/01/15 04:05:29;;;;;;;29.03;13.13;;;-3.90;99.90;;;;;;5052017;28;20021;-77
2021/01/15 04:07:54;;;;;;;24.60;12.07;;;-3.90;99.90;;;;;;5051975;28;20444;-77
2021/01/15 04:10:20;;;;;;;23.30;10.70;;;-3.90;99.90;;;;;;5053234;28;20024;-78
2021/01/15 04:12:46;;;;;;;29.47;12.97;;;-3.80;99.90;;;;;;5050117;28;20138;-77
2021/01/15 04:15:16;;;;;;;28.20;12.23;;;-3.90;99.90;;;;;;5051392;28;20158;-77
2021/01/15 04:17:42;;;;;;;28.73;13.03;;;-3.90;99.90;;;;;;5052943;28;20037;-78
2021/01/15 04:20:10;;;;;;;25.37;12.20;;;-3.90;99.90;;;;;;5050471;28;20047;-78
2021/01/15 04:22:36;;;;;;;23.97;11.97;;;-3.90;99.90;;;;;;5050952;28;20025;-77
2021/01/15 04:25:03;;;;;;;23.90;11.73;;;-3.90;99.90;;;;;;5051315;28;20021;-77
2021/01/15 04:27:34;;;;;;;29.67;13.83;;;-3.90;99.90;;;;;;5052046;28;20096;-78
2021/01/15 04:30:04;;;;;;;27.03;13.50;;;-3.90;99.90;;;;;;5051201;28;20032;-76
2021/01/15 04:32:30;;;;;;;26.35;11.25;;;-3.80;99.90;;;;;;5052387;28;20134;-76
2021/01/15 04:34:56;;;;;;;26.77;12.13;;;-3.80;99.90;;;;;;5051518;28;20480;-76
2021/01/15 04:37:21;;;;;;;29.07;14.37;;;-3.90;99.90;;;;;;5052469;28;20102;-77
2021/01/15 04:39:47;;;;;;;25.83;11.23;;;-3.90;99.90;;;;;;5051414;28;20455;-77
2021/01/15 04:42:15;;;;;;;28.23;13.43;;;-3.80;99.90;;;;;;5033896;28;20433;-77
2021/01/15 04:44:42;;;;;;;29.37;14.07;;;-3.80;99.90;;;;;;5050180;28;20075;-76
2021/01/15 04:47:09;;;;;;;29.33;14.13;;;-3.90;99.90;;;;;;5052213;28;20032;-77
2021/01/15 04:49:38;;;;;;;32.83;15.50;;;-3.80;99.90;;;;;;5048771;28;20104;-78
2021/01/15 04:52:10;;;;;;;31.80;14.43;;;-3.80;99.90;;;;;;5050927;28;20033;-78
2021/01/15 04:54:37;;;;;;;28.50;12.93;;;-3.90;99.90;;;;;;5051041;28;20096;-77
2021/01/15 04:57:11;;;;;;;32.37;14.90;;;-3.90;99.90;;;;;;5031783;28;20052;-78
2021/01/15 04:59:44;;;;;;;29.70;14.00;;;-3.90;99.90;;;;;;5052227;28;20388;-77
2021/01/15 05:02:12;;;;;;;32.50;15.80;;;-3.90;99.90;;;;;;5053954;28;20021;-76
2021/01/15 05:04:38;;;;;;;29.70;14.77;;;-3.90;99.90;;;;;;5051301;28;20380;-76
2021/01/15 05:07:08;;;;;;;30.33;14.83;;;-3.90;99.90;;;;;;5052520;28;20021;-77
2021/01/15 05:09:56;;;;;;;31.63;14.83;;;-4.00;99.90;;;;;;5050705;28;20029;-78
2021/01/15 05:12:28;;;;;;;26.20;14.10;;;-4.00;99.90;;;;;;5050188;28;20023;-76
2021/01/15 05:14:54;;;;;;;33.63;15.13;;;-4.10;99.90;;;;;;5033861;28;20041;-76
2021/01/15 05:17:20;;;;;;;32.10;14.67;;;-4.20;99.90;;;;;;5049849;28;20037;-76
2021/01/15 05:19:46;;;;;;;29.50;14.70;;;-4.10;99.90;;;;;;5050384;28;20498;-77
2021/01/15 05:22:12;;;;;;;31.47;14.90;;;-4.10;99.90;;;;;;5051872;28;20040;-77
2021/01/15 05:24:39;;;;;;;22.00;9.27;;;-4.10;99.90;;;;;;5050389;28;20029;-75
2021/01/15 05:30:17;;;;;;;28.30;12.48;;;-3.90;99.90;;;;;;5050050;28;20107;-77
2021/01/15 05:32:44;;;;;;;34.40;15.60;;;-3.90;99.90;;;;;;5049774;28;20079;-77
2021/01/15 05:35:10;;;;;;;30.83;14.73;;;-3.90;99.90;;;;;;5051329;28;20100;-77
2021/01/15 05:37:36;;;;;;;38.00;16.77;;;-3.80;99.90;;;;;;5031549;28;20036;-78
2021/01/15 05:40:03;;;;;;;28.83;14.03;;;-3.80;99.90;;;;;;5051740;28;20032;-76
2021/01/15 05:42:29;;;;;;;37.90;18.03;;;-3.80;99.90;;;;;;5047816;28;20494;-77
2021/01/15 05:45:13;;;;;;;33.10;16.67;;;-3.80;99.90;;;;;;5050309;28;20021;-77
2021/01/15 05:47:46;;;;;;;38.23;16.57;;;-3.80;99.90;;;;;;5030678;28;20444;-76
2021/01/15 05:50:13;;;;;;;33.10;17.07;;;-3.90;99.90;;;;;;5049449;28;20103;-77
2021/01/15 05:52:59;;;;;;;38.67;17.97;;;-3.90;99.90;;;;;;5058177;28;20099;-76
2021/01/15 05:55:28;;;;;;;31.93;15.23;;;-4.00;99.90;;;;;;5051383;28;20055;-77
2021/01/15 05:57:54;;;;;;;;;;;-4.00;99.90;;;;;;5050113;28;20040;-77
2021/01/15 06:00:25;;;;;;;37.93;15.83;;;-3.90;99.90;;;;;;5053044;28;19909;-78
2021/01/15 06:02:55;;;;;;;39.67;18.20;;;-3.90;99.90;;;;;;5051957;28;20028;-78
2021/01/15 06:05:22;;;;;;;44.27;18.40;;;-4.00;99.90;;;;;;5051565;28;20059;-77
2021/01/15 06:07:55;;;;;;;41.90;18.50;;;-4.00;99.90;;;;;;5050330;28;20102;-77
2021/01/15 06:10:21;;;;;;;36.87;18.27;;;-4.00;99.90;;;;;;5059190;28;20083;-74
2021/01/15 06:12:47;;;;;;;38.57;18.00;;;-4.00;99.90;;;;;;5036066;28;20080;-74
2021/01/15 06:15:13;;;;;;;41.13;18.10;;;-4.00;99.90;;;;;;5054122;28;20051;-74
2021/01/15 06:17:39;;;;;;;36.10;16.70;;;-4.10;99.90;;;;;;5054592;28;20440;-75
2021/01/15 06:20:06;;;;;;;38.13;17.97;;;-4.10;99.90;;;;;;5053703;28;20044;-78
2021/01/15 06:22:45;;;;;;;36.47;17.37;;;-4.10;99.90;;;;;;5054623;28;20447;-77
2021/01/15 06:25:29;;;;;;;37.27;17.03;;;-4.10;99.90;;;;;;5036218;28;20013;-79
2021/01/15 06:27:56;;;;;;;38.03;16.20;;;-4.10;99.90;;;;;;5043504;28;20029;-78
2021/01/15 06:30:27;;;;;;;37.57;15.43;;;-4.10;99.90;;;;;;5055542;28;20029;-78
2021/01/15 06:32:54;;;;;;;35.47;13.93;;;-4.10;99.90;;;;;;5054549;28;20025;-78
2021/01/15 06:35:28;;;;;;;30.73;11.50;;;-4.10;99.90;;;;;;5054943;28;20539;-78
2021/01/15 06:38:11;;;;;;;35.57;14.67;;;-4.10;99.90;;;;;;5053919;28;20032;-78
2021/01/15 06:40:41;;;;;;;28.80;11.83;;;-4.10;99.90;;;;;;5043463;28;20029;-78
2021/01/15 06:43:09;;;;;;;48.67;19.20;;;-4.20;99.90;;;;;;5054411;28;20075;-77
2021/01/15 06:45:49;;;;;;;44.17;19.20;;;-4.20;99.90;;;;;;5054487;28;20041;-78
2021/01/15 06:48:26;;;;;;;49.03;21.03;;;-4.20;99.90;;;;;;5054855;28;20028;-77
2021/01/15 06:50:56;;;;;;;49.57;22.20;;;-4.20;99.90;;;;;;5054641;28;20021;-79
2021/01/15 06:53:29;;;;;;;33.60;15.37;;;-4.20;99.90;;;;;;5036824;28;20017;-77
2021/01/15 06:55:57;;;;;;;34.00;16.17;;;-4.30;99.90;;;;;;5055430;28;20033;-79
2021/01/15 06:58:26;;;;;;;48.80;20.47;;;-4.40;99.90;;;;;;5052455;28;20369;-77
2021/01/15 07:01:10;;;;;;;18.03;7.83;;;-4.40;99.90;;;;;;5051033;28;20075;-75
2021/01/15 07:04:01;;;;;;;55.77;20.80;;;-4.60;99.90;;;;;;5055700;28;20021;-74
2021/01/15 07:06:35;;;;;;;35.27;14.07;;;-4.60;99.90;;;;;;5054538;28;20616;-76
2021/01/15 07:09:06;;;;;;;47.53;21.03;;;-4.50;99.90;;;;;;5054606;28;20536;-78
2021/01/15 07:11:32;;;;;;;37.10;15.33;;;-4.40;99.90;;;;;;5054167;28;20064;-75
2021/01/15 07:14:04;;;;;;;59.77;22.27;;;-4.40;99.90;;;;;;5050038;28;20124;-76
2021/01/15 07:16:32;;;;;;;44.27;15.37;;;-4.40;99.90;;;;;;5053797;28;20036;-76
2021/01/15 07:19:15;;;;;;;65.00;26.03;;;-4.30;99.90;;;;;;5046300;28;20025;-75
2021/01/15 07:22:01;;;;;;;20.10;9.33;;;-4.30;99.90;;;;;;5050555;28;20051;-75
2021/01/15 07:24:30;;;;;;;65.33;26.13;;;-4.20;99.90;;;;;;5050821;28;20056;-75
2021/01/15 07:26:55;;;;;;;66.53;25.30;;;-4.10;99.90;;;;;;5051378;28;20522;-73
2021/01/15 07:29:23;;;;;;;66.63;23.57;;;-4.10;99.90;;;;;;5051636;28;20060;-75
2021/01/15 07:31:53;;;;;;;68.33;26.33;;;-4.00;99.90;;;;;;5051806;28;20472;-75
2021/01/15 07:34:22;;;;;;;62.70;22.83;;;-3.90;99.90;;;;;;5051211;28;20013;-73
2021/01/15 07:36:48;;;;;;;61.42;25.38;;;-3.90;99.90;;;;;;5050971;28;20036;-76
2021/01/15 07:39:16;;;;;;;62.53;24.17;;;-3.90;99.90;;;;;;5050765;28;20903;-74
2021/01/15 07:41:48;;;;;;;54.50;21.40;;;-3.70;99.90;;;;;;5051153;28;20067;-75
2021/01/15 07:44:23;;;;;;;62.73;24.17;;;-3.80;99.90;;;;;;5051464;28;20021;-74
2021/01/15 07:46:55;;;;;;;55.80;22.67;;;-3.70;99.90;;;;;;5050651;28;20116;-75
2021/01/15 07:49:22;;;;;;;55.73;21.33;;;-3.70;99.90;;;;;;5049733;28;21718;-76
2021/01/15 07:52:07;;;;;;;53.93;22.33;;;-3.60;99.90;;;;;;5051554;28;20407;-76
2021/01/15 07:54:49;;;;;;;37.07;13.43;;;-3.70;99.90;;;;;;5052970;28;20036;-74
2021/01/15 07:57:18;;;;;;;52.30;19.53;;;-3.70;99.90;;;;;;5064853;28;20133;-77
2021/01/15 07:59:47;;;;;;;46.80;19.55;;;-3.70;99.90;;;;;;5050780;28;20117;-77
2021/01/15 08:02:17;;;;;;;47.58;20.83;;;-3.60;99.90;;;;;;5052145;28;20039;-78
2021/01/15 08:04:43;;;;;;;25.70;10.43;;;-3.60;99.90;;;;;;5049370;28;20029;-75
2021/01/15 08:07:31;;;;;;;31.33;13.43;;;-3.80;99.90;;;;;;5046763;28;20120;-75
2021/01/15 08:09:57;;;;;;;30.93;13.43;;;-3.80;99.90;;;;;;5046333;28;20383;-75
2021/01/15 08:12:23;;;;;;;45.20;19.40;;;-3.80;99.90;;;;;;5048609;28;20246;-75
2021/01/15 08:14:48;;;;;;;45.07;20.17;;;-3.70;99.90;;;;;;5030412;28;20100;-74
2021/01/15 08:17:24;;;;;;;48.07;19.00;;;-3.60;99.90;;;;;;5009818;28;20045;-77
2021/01/15 08:19:50;;;;;;;41.30;15.83;;;-3.60;99.90;;;;;;5029434;28;20420;-78
2021/01/15 08:22:16;;;;;;;50.67;20.87;;;-3.60;99.90;;;;;;5029771;28;20065;-76
2021/01/15 08:24:49;;;;;;;47.43;19.57;;;-3.50;99.90;;;;;;5030266;28;20044;-77
2021/01/15 08:27:22;;;;;;;46.33;18.70;;;-3.40;99.90;;;;;;5029410;28;20384;-79
2021/01/15 08:29:50;;;;;;;38.10;14.87;;;-3.50;99.90;;;;;;5031372;28;20044;-77
2021/01/15 08:32:16;;;;;;;37.07;17.87;;;-3.50;99.90;;;;;;5031611;28;20041;-75
2021/01/15 08:34:44;;;;;;;44.23;18.60;;;-3.50;99.90;;;;;;5032246;28;20053;-76
2021/01/15 08:37:11;;;;;;;37.93;16.37;;;-3.40;99.90;;;;;;5031956;28;20037;-79
2021/01/15 08:39:54;;;;;;;45.33;19.13;;;-3.40;99.90;;;;;;5029966;28;20041;-77
2021/01/15 08:42:20;;;;;;;36.60;17.40;;;-3.30;99.90;;;;;;5032731;28;20025;-78
2021/01/15 08:44:50;;;;;;;45.47;19.83;;;-3.20;99.90;;;;;;5031315;28;20075;-76
2021/01/15 08:47:21;;;;;;;41.57;17.63;;;-3.10;99.90;;;;;;5031343;28;20021;-78
2021/01/15 08:49:55;;;;;;;42.60;19.43;;;-3.10;99.90;;;;;;5033802;28;20031;-76
2021/01/15 08:52:24;;;;;;;35.83;17.17;;;-3.10;99.90;;;;;;5031290;28;20032;-78
2021/01/15 08:54:52;;;;;;;41.47;18.37;;;-3.00;99.90;;;;;;5028754;28;20113;-76
2021/01/15 08:57:25;;;;;;;42.43;19.23;;;-3.00;99.90;;;;;;5025251;28;20043;-76
2021/01/15 08:59:51;;;;;;;26.93;11.20;;;-3.10;99.90;;;;;;5023562;28;20033;-77
2021/01/15 09:02:18;;;;;;;38.00;18.10;;;-3.30;99.90;;;;;;5027968;28;20036;-76
2021/01/15 09:04:44;;;;;;;29.70;11.57;;;-3.20;99.90;;;;;;5028094;28;20034;-78
2021/01/15 09:07:11;;;;;;;38.03;17.10;;;-3.30;99.90;;;;;;5026870;28;20040;-77
2021/01/15 09:09:38;;;;;;;37.37;17.77;;;-3.30;99.90;;;;;;5028949;28;20032;-77
2021/01/15 09:12:05;;;;;;;41.93;18.23;;;-3.20;99.90;;;;;;5027350;28;20041;-76
2021/01/15 09:14:38;;;;;;;38.10;17.33;;;-3.20;99.90;;;;;;5013472;28;20087;-77
2021/01/15 09:17:07;;;;;;;42.77;17.67;;;-3.10;99.90;;;;;;5044175;28;20037;-77
2021/01/15 09:19:33;;;;;;;;;;;-3.00;99.90;;;;;;5030042;28;20020;-77
2021/01/15 09:22:04;;;;;;;36.67;16.13;;;-2.90;99.90;;;;;;5032233;28;20409;-77
2021/01/15 09:24:35;;;;;;;37.63;17.30;;;-2.80;99.90;;;;;;5025267;28;20067;-78
2021/01/15 09:27:02;;;;;;;30.73;13.60;;;-2.70;99.90;;;;;;5044717;28;20110;-77
2021/01/15 09:29:29;;;;;;;34.20;16.43;;;-2.70;99.90;;;;;;5035353;28;20025;-76
2021/01/15 09:31:55;;;;;;;36.77;15.57;;;-2.60;99.90;;;;;;5035305;28;20090;-78
2021/01/15 09:34:22;;;;;;;32.63;14.97;;;-2.60;99.90;;;;;;5045783;28;20362;-78
2021/01/15 09:36:50;;;;;;;23.10;9.80;;;-2.60;99.90;;;;;;5036803;28;20263;-76
2021/01/15 09:39:17;;;;;;;28.17;13.97;;;-2.70;99.90;;;;;;5025087;28;20116;-76
2021/01/15 09:41:54;;;;;;;27.83;14.03;;;-2.60;99.90;;;;;;5023454;28;20036;-76
2021/01/15 09:44:22;;;;;;;29.93;14.47;;;-2.60;99.90;;;;;;5026977;28;20499;-76
2021/01/15 09:46:50;;;;;;;30.17;14.13;;;-2.40;99.90;;;;;;5036144;28;20040;-75
2021/01/15 09:49:16;;;;;;;26.37;11.27;;;-2.40;99.90;;;;;;5050013;28;20086;-75
2021/01/15 09:51:42;;;;;;;32.97;15.13;;;-2.50;99.90;;;;;;5039534;28;20029;-75
2021/01/15 09:54:08;;;;;;;20.60;10.23;;;-2.60;99.90;;;;;;5029510;28;20032;-76
2021/01/15 09:56:40;;;;;;;19.97;6.83;;;-2.50;99.90;;;;;;5032616;28;20025;-75
2021/01/15 09:59:07;;;;;;;19.90;8.60;;;-2.60;99.90;;;;;;5035651;28;20034;-77
2021/01/15 10:01:34;;;;;;;30.83;14.30;;;-2.50;99.90;;;;;;5027865;28;20034;-77
2021/01/15 10:03:59;;;;;;;25.30;11.63;;;-2.40;99.90;;;;;;5031874;28;20052;-76
2021/01/15 10:06:32;;;;;;;20.00;9.30;;;-2.40;99.90;;;;;;5033810;28;20033;-76
2021/01/15 10:08:58;;;;;;;26.53;12.30;;;-2.20;99.90;;;;;;5036366;28;20080;-77
2021/01/15 10:11:29;;;;;;;26.73;12.47;;;-2.20;99.90;;;;;;5036589;28;20033;-77
2021/01/15 10:13:56;;;;;;;23.43;10.73;;;-2.30;99.90;;;;;;5033533;28;20056;-76
2021/01/15 10:16:23;;;;;;;29.37;14.07;;;-2.20;99.90;;;;;;5012447;28;20031;-77
2021/01/15 10:18:49;;;;;;;16.30;7.37;;;-2.20;99.90;;;;;;5031351;28;20038;-78
2021/01/15 10:21:19;;;;;;;27.50;13.73;;;-2.20;99.90;;;;;;5030944;28;20028;-77
2021/01/15 10:23:45;;;;;;;30.50;14.63;;;-2.20;99.90;;;;;;5029912;28;20075;-77
2021/01/15 10:26:10;;;;;;;27.30;13.90;;;-1.90;99.90;;;;;;5030332;28;20049;-78
2021/01/15 10:28:36;;;;;;;26.67;11.73;;;-1.70;99.90;;;;;;5030943;28;20026;-77
2021/01/15 10:31:01;;;;;;;28.93;13.57;;;-1.90;99.90;;;;;;5031701;28;20025;-78
2021/01/15 10:33:27;;;;;;;29.50;15.00;;;-1.80;99.90;;;;;;5033820;28;20088;-78
2021/01/15 10:35:53;;;;;;;25.33;11.27;;;-1.70;99.90;;;;;;5029585;28;20052;-79
2021/01/15 10:38:20;;;;;;;29.27;14.30;;;-1.50;99.90;;;;;;5013318;28;20033;-76
2021/01/15 10:40:45;;;;;;;17.73;8.30;;;-1.50;99.90;;;;;;5031341;28;20477;-77
2021/01/15 10:43:12;;;;;;;18.00;9.07;;;-1.40;99.90;;;;;;5030889;28;20025;-76
2021/01/15 10:45:38;;;;;;;11.60;5.50;;;-1.60;99.90;;;;;;5030945;28;20021;-77
2021/01/15 10:48:05;;;;;;;21.30;9.27;;;-1.70;99.90;;;;;;5030950;28;20447;-76
2021/01/15 10:50:31;;;;;;;7.20;4.23;;;-1.70;99.90;;;;;;5031204;28;20515;-78
2021/01/15 10:52:57;;;;;;;20.33;7.37;;;-1.80;99.90;;;;;;5031125;28;20121;-76
2021/01/15 10:55:22;;;;;;;23.87;10.57;;;-1.90;99.90;;;;;;5032933;28;20107;-77
2021/01/15 10:57:48;;;;;;;27.13;12.77;;;-1.80;99.90;;;;;;5034540;28;20115;-77
2021/01/15 11:00:15;;;;;;;26.60;13.27;;;-1.60;99.90;;;;;;5035070;28;20116;-76
2021/01/15 11:02:40;;;;;;;24.80;11.27;;;-1.40;99.90;;;;;;5035065;28;20040;-78
2021/01/15 11:05:07;;;;;;;22.40;8.10;;;-1.50;99.90;;;;;;5034641;28;20017;-76
2021/01/15 11:07:33;;;;;;;32.00;11.90;;;-1.50;99.90;;;;;;5036457;28;20162;-77
2021/01/15 11:09:59;;;;;;;25.03;12.20;;;-1.50;99.90;;;;;;5035608;28;20112;-77
2021/01/15 11:12:24;;;;;;;18.67;7.50;;;-1.40;99.90;;;;;;5036681;28;20039;-77
2021/01/15 11:14:51;;;;;;;15.87;7.07;;;-1.40;99.90;;;;;;5036598;28;20579;-77
2021/01/15 11:17:17;;;;;;;22.30;8.37;;;-1.50;99.90;;;;;;5054431;28;20064;-77
2021/01/15 11:19:43;;;;;;;26.90;13.13;;;-1.70;99.90;;;;;;5054354;28;20421;-76
2021/01/15 11:22:09;;;;;;;26.67;12.27;;;-1.80;99.90;;;;;;5054129;28;20032;-77
2021/01/15 11:24:35;;;;;;;16.40;6.53;;;-1.40;99.90;;;;;;5050984;28;20599;-77
2021/01/15 11:27:00;;;;;;;21.83;8.33;;;-1.60;99.90;;;;;;5052654;28;20043;-78
2021/01/15 11:29:26;;;;;;;23.23;11.80;;;-1.70;99.90;;;;;;5051210;28;20397;-78
2021/01/15 11:31:52;;;;;;;25.77;10.83;;;-1.60;99.90;;;;;;5050612;28;20064;-76
2021/01/15 11:34:20;;;;;;;26.50;10.80;;;-1.50;99.90;;;;;;5054052;28;20075;-76
2021/01/15 11:36:48;;;;;;;24.87;9.17;;;-1.50;99.90;;;;;;5051809;28;20037;-77
2021/01/15 11:39:14;;;;;;;25.40;10.77;;;-1.50;99.90;;;;;;5053675;28;20399;-77
2021/01/15 11:41:40;;;;;;;22.37;11.20;;;-1.60;99.90;;;;;;5050568;28;20429;-76
2021/01/15 11:44:10;;;;;;;31.73;14.27;;;-1.50;99.90;;;;;;5048035;28;20112;-77
2021/01/15 11:46:36;;;;;;;33.08;16.23;;;-1.40;99.90;;;;;;5050315;28;20052;-77
2021/01/15 11:49:02;;;;;;;29.70;14.57;;;-1.20;99.90;;;;;;5050256;28;20044;-77
2021/01/15 11:51:28;;;;;;;29.67;15.00;;;-1.00;99.90;;;;;;5045898;28;20456;-76
2021/01/15 11:53:53;;;;;;;26.83;11.97;;;-0.60;99.90;;;;;;5051221;28;20067;-79
2021/01/15 11:56:19;;;;;;;29.50;14.27;;;-0.80;99.90;;;;;;5050695;28;20136;-78
2021/01/15 11:58:45;;;;;;;25.33;12.23;;;-1.00;99.90;;;;;;5050785;28;20044;-76
2021/01/15 12:01:10;;;;;;;24.80;11.97;;;-0.80;99.90;;;;;;5043723;28;20033;-77
2021/01/15 12:03:36;;;;;;;25.97;13.13;;;-0.90;99.90;;;;;;5028545;28;20037;-77
2021/01/15 12:06:03;;;;;;;27.07;12.67;;;-0.80;99.90;;;;;;5048474;28;20083;-77
2021/01/15 12:08:28;;;;;;;25.60;11.17;;;-0.70;99.90;;;;;;5050471;28;20041;-78
2021/01/15 12:10:59;;;;;;;24.30;11.63;;;-0.60;99.90;;;;;;5050599;28;20035;-77
2021/01/15 12:13:26;;;;;;;28.33;12.43;;;-0.40;99.90;;;;;;5046371;28;20063;-77
2021/01/15 12:15:53;;;;;;;25.03;11.40;;;-0.40;99.90;;;;;;5050493;28;20048;-79
2021/01/15 12:18:19;;;;;;;25.90;13.40;;;-0.20;99.90;;;;;;5048766;28;20127;-77
2021/01/15 12:20:46;;;;;;;23.67;11.57;;;0.00;99.90;;;;;;5049527;28;20171;-77
2021/01/15 12:23:12;;;;;;;22.57;12.00;;;-0.30;99.90;;;;;;5050433;28;20036;-77
2021/01/15 12:25:39;;;;;;;24.80;12.50;;;-0.40;99.90;;;;;;5050043;28;20112;-78
2021/01/15 12:28:09;;;;;;;24.53;12.97;;;-0.40;99.90;;;;;;5049553;28;20128;-77
2021/01/15 12:30:37;;;;;;;8.70;3.83;;;-0.60;99.90;;;;;;5056954;28;20123;-78
2021/01/15 12:33:11;;;;;;;21.55;9.63;;;-0.50;99.90;;;;;;5050150;28;20080;-78
2021/01/15 12:35:37;;;;;;;23.37;10.80;;;-0.60;99.90;;;;;;5049286;28;20105;-78
2021/01/15 12:38:15;;;;;;;22.20;11.30;;;-0.70;99.90;;;;;;5048839;28;20033;-76
2021/01/15 12:40:41;;;;;;;25.20;12.97;;;-0.50;99.90;;;;;;5047716;28;20135;-78
2021/01/15 12:43:08;;;;;;;21.77;10.33;;;-0.20;99.90;;;;;;5051068;28;20765;-76